createdAt,value
2022-11-20T00:01:54.806Z,8.30
2022-11-20T00:04:23.660Z,8.20
2022-11-20T00:06:52.568Z,8.20
2022-11-20T00:09:21.976Z,8.00
2022-11-20T00:11:50.887Z,8.00
2022-11-20T00:14:21.613Z,8.00
2022-11-20T00:16:50.500Z,8.00
2022-11-20T00:19:19.814Z,8.00
2022-11-20T00:21:52.460Z,8.10
2022-11-20T00:24:36.672Z,8.10
2022-11-20T00:27:07.832Z,8.20
2022-11-20T00:29:38.332Z,8.20
2022-11-20T00:32:07.369Z,8.30
2022-11-20T00:34:36.239Z,8.30
2022-11-20T00:37:04.936Z,8.30
2022-11-20T00:39:34.016Z,8.20
2022-11-20T00:42:02.893Z,8.10
2022-11-20T00:44:31.807Z,7.90
2022-11-20T00:47:01.908Z,7.90
2022-11-20T00:49:30.501Z,7.70
2022-11-20T00:51:59.033Z,7.70
2022-11-20T00:54:27.587Z,7.60
2022-11-20T00:56:56.300Z,7.60
2022-11-20T00:59:24.995Z,7.60
2022-11-20T01:01:53.605Z,7.70
2022-11-20T01:04:23.696Z,7.60
2022-11-20T01:06:52.361Z,7.50
2022-11-20T01:09:21.181Z,7.60
2022-11-20T01:11:50.299Z,7.70
2022-11-20T01:14:21.565Z,7.70
2022-11-20T01:16:52.923Z,7.80
2022-11-20T01:19:26.765Z,7.80
2022-11-20T01:21:56.941Z,7.80
2022-11-20T01:24:25.732Z,7.90
2022-11-20T01:26:54.549Z,8.00
2022-11-20T01:29:25.814Z,8.10
2022-11-20T01:31:55.427Z,8.10
2022-11-20T01:34:26.077Z,8.20
2022-11-20T01:36:55.728Z,8.10
2022-11-20T01:39:27.488Z,8.10
2022-11-20T01:42:15.559Z,8.20
2022-11-20T01:44:54.276Z,8.10
2022-11-20T01:47:36.661Z,8.20
2022-11-20T01:50:16.761Z,8.00
2022-11-20T01:52:51.748Z,7.90
2022-11-20T01:55:24.679Z,7.90
2022-11-20T01:57:54.045Z,8.00
2022-11-20T02:00:23.934Z,8.10
2022-11-20T02:02:57.799Z,8.10
2022-11-20T02:05:35.388Z,8.20
2022-11-20T02:08:07.942Z,8.30
2022-11-20T02:10:37.278Z,8.30
2022-11-20T02:13:23.706Z,8.20
2022-11-20T02:15:52.913Z,8.20
2022-11-20T02:18:23.669Z,8.30
2022-11-20T02:21:03.430Z,8.30
2022-11-20T02:23:40.635Z,8.30
2022-11-20T02:26:17.760Z,8.30
2022-11-20T02:28:46.557Z,8.20
2022-11-20T02:31:15.231Z,8.20
2022-11-20T02:33:43.954Z,8.20
2022-11-20T02:36:18.331Z,8.30
2022-11-20T02:38:47.127Z,8.20
2022-11-20T02:41:17.192Z,8.20
2022-11-20T02:43:46.051Z,8.20
2022-11-20T02:46:15.106Z,8.20
2022-11-20T02:48:43.819Z,8.20
2022-11-20T02:51:12.523Z,8.20
2022-11-20T02:53:41.530Z,8.20
2022-11-20T02:56:10.380Z,8.10
2022-11-20T02:58:40.719Z,8.00
2022-11-20T03:01:09.407Z,8.00
2022-11-20T03:03:38.223Z,8.00
2022-11-20T03:06:07.792Z,8.00
2022-11-20T03:08:36.994Z,7.90
2022-11-20T03:11:08.273Z,8.00
2022-11-20T03:13:37.584Z,8.00
2022-11-20T03:16:13.842Z,7.90
2022-11-20T03:18:43.625Z,8.00
2022-11-20T03:21:13.575Z,8.00
2022-11-20T03:23:43.263Z,8.10
2022-11-20T03:26:14.581Z,8.20
2022-11-20T03:28:44.411Z,8.10
2022-11-20T03:31:17.390Z,8.10
2022-11-20T03:33:46.575Z,8.10
2022-11-20T03:36:17.218Z,8.20
2022-11-20T03:38:46.827Z,8.20
2022-11-20T03:41:20.214Z,8.20
2022-11-20T03:43:51.062Z,8.20
2022-11-20T03:46:21.304Z,8.20
2022-11-20T03:48:52.117Z,8.30
2022-11-20T03:51:23.665Z,8.10
2022-11-20T03:53:54.738Z,8.10
2022-11-20T03:56:28.934Z,8.00
2022-11-20T03:58:58.332Z,8.00
2022-11-20T04:01:31.334Z,7.60
2022-11-20T04:04:00.436Z,7.50
2022-11-20T04:06:32.770Z,7.50
2022-11-20T04:09:01.746Z,7.60
2022-11-20T04:11:32.956Z,7.80
2022-11-20T04:14:03.969Z,7.90
2022-11-20T04:16:37.648Z,7.90
2022-11-20T04:19:11.740Z,7.90
2022-11-20T04:21:40.569Z,7.90
2022-11-20T04:24:11.277Z,7.60
2022-11-20T04:26:39.881Z,7.60
2022-11-20T04:29:08.702Z,7.50
2022-11-20T04:31:38.594Z,7.50
2022-11-20T04:34:09.041Z,7.60
2022-11-20T04:36:37.682Z,7.70
2022-11-20T04:39:08.379Z,7.80
2022-11-20T04:41:38.541Z,7.90
2022-11-20T04:44:08.266Z,7.80
2022-11-20T04:46:41.724Z,7.70
2022-11-20T04:49:15.264Z,7.80
2022-11-20T04:51:43.871Z,7.60
2022-11-20T04:54:14.416Z,7.60
2022-11-20T04:56:42.945Z,7.40
2022-11-20T04:59:11.467Z,7.30
2022-11-20T05:01:41.868Z,7.30
2022-11-20T05:04:10.646Z,7.30
2022-11-20T05:06:39.212Z,7.30
2022-11-20T05:09:07.816Z,7.30
2022-11-20T05:11:36.329Z,7.30
2022-11-20T05:14:05.097Z,7.30
2022-11-20T05:16:36.849Z,7.20
2022-11-20T05:19:07.059Z,7.30
2022-11-20T05:21:35.587Z,7.30
2022-11-20T05:24:04.182Z,7.30
2022-11-20T05:26:32.736Z,7.30
2022-11-20T05:29:01.288Z,7.40
2022-11-20T05:31:29.801Z,7.50
2022-11-20T05:33:59.596Z,7.40
2022-11-20T05:36:29.553Z,7.50
2022-11-20T05:39:01.469Z,7.50
2022-11-20T05:41:30.420Z,7.60
2022-11-20T05:44:00.445Z,7.70
2022-11-20T05:46:29.832Z,7.60
2022-11-20T05:49:00.271Z,7.70
2022-11-20T05:51:30.310Z,7.80
2022-11-20T05:53:59.904Z,7.90
2022-11-20T05:56:28.449Z,7.90
2022-11-20T05:58:56.965Z,7.90
2022-11-20T06:01:27.868Z,7.90
2022-11-20T06:03:56.819Z,7.90
2022-11-20T06:06:26.293Z,7.90
2022-11-20T06:08:59.879Z,7.80
2022-11-20T06:11:28.437Z,7.70
2022-11-20T06:13:56.963Z,7.70
2022-11-20T06:16:25.692Z,7.80
2022-11-20T06:18:54.274Z,7.90
2022-11-20T06:21:24.627Z,7.90
2022-11-20T06:23:56.135Z,7.90
2022-11-20T06:26:29.322Z,8.00
2022-11-20T06:28:58.270Z,7.90
2022-11-20T06:31:28.908Z,7.80
2022-11-20T06:33:57.893Z,7.90
2022-11-20T06:36:26.684Z,8.00
2022-11-20T06:38:56.679Z,8.00
2022-11-20T06:41:26.255Z,7.70
2022-11-20T06:43:54.979Z,7.70
2022-11-20T06:46:23.856Z,7.70
2022-11-20T06:48:53.026Z,7.70
2022-11-20T06:51:22.552Z,7.80
2022-11-20T06:53:51.216Z,7.90
2022-11-20T06:56:21.170Z,7.90
2022-11-20T06:58:49.702Z,8.10
2022-11-20T07:01:18.890Z,8.10
2022-11-20T07:03:52.894Z,8.20
2022-11-20T07:06:22.908Z,8.20
2022-11-20T07:08:54.036Z,8.10
2022-11-20T07:11:23.997Z,8.10
2022-11-20T07:13:52.743Z,8.20
2022-11-20T07:16:21.365Z,8.30
2022-11-20T07:18:51.060Z,8.30
2022-11-20T07:21:19.805Z,8.30
2022-11-20T07:23:48.834Z,8.30
2022-11-20T07:26:17.481Z,8.30
2022-11-20T07:28:48.461Z,8.30
2022-11-20T07:31:19.392Z,8.30
2022-11-20T07:33:48.634Z,8.30
2022-11-20T07:36:17.165Z,8.30
2022-11-20T07:38:45.687Z,8.20
2022-11-20T07:41:14.201Z,8.20
2022-11-20T07:43:42.846Z,8.30
2022-11-20T07:46:12.712Z,8.00
2022-11-20T07:48:42.271Z,8.00
2022-11-20T07:51:10.831Z,8.10
2022-11-20T07:53:39.438Z,8.10
2022-11-20T07:56:09.301Z,8.20
2022-11-20T07:58:38.241Z,8.20
2022-11-20T08:01:07.691Z,8.20
2022-11-20T08:03:39.546Z,8.20
2022-11-20T08:06:09.827Z,8.20
2022-11-20T08:08:42.935Z,8.30
2022-11-20T08:11:29.559Z,8.40
2022-11-20T08:14:16.873Z,8.50
2022-11-20T08:16:47.807Z,8.50
2022-11-20T08:19:20.042Z,8.40
2022-11-20T08:21:49.069Z,8.20
2022-11-20T08:24:17.628Z,8.20
2022-11-20T08:26:46.191Z,8.30
2022-11-20T08:29:14.700Z,8.50
2022-11-20T08:31:43.212Z,8.50
2022-11-20T08:34:16.251Z,8.60
2022-11-20T08:36:48.659Z,8.60
2022-11-20T08:39:17.425Z,8.70
2022-11-20T08:41:45.936Z,8.80
2022-11-20T08:44:14.441Z,8.80
2022-11-20T08:46:44.980Z,8.70
2022-11-20T08:49:17.205Z,8.70
2022-11-20T08:51:48.957Z,8.60
2022-11-20T08:54:20.411Z,8.70
2022-11-20T08:56:48.875Z,8.70
2022-11-20T08:59:31.266Z,8.70
2022-11-20T09:02:05.665Z,8.60
2022-11-20T09:04:34.158Z,8.60
2022-11-20T09:07:04.327Z,8.60
2022-11-20T09:09:33.654Z,8.60
2022-11-20T09:12:02.190Z,8.50
2022-11-20T09:14:31.196Z,8.40
2022-11-20T09:16:59.939Z,8.40
2022-11-20T09:19:40.786Z,8.30
2022-11-20T09:22:11.205Z,8.20
2022-11-20T09:24:39.750Z,8.30
2022-11-20T09:27:08.332Z,8.30
2022-11-20T09:29:36.839Z,8.40
2022-11-20T09:32:05.869Z,8.40
2022-11-20T09:34:34.595Z,8.40
2022-11-20T09:37:06.330Z,8.50
2022-11-20T09:39:39.978Z,8.50
2022-11-20T09:42:29.503Z,8.50
2022-11-20T09:45:21.051Z,8.50
2022-11-20T09:48:11.373Z,8.60
2022-11-20T09:50:48.858Z,8.60
2022-11-20T09:53:32.757Z,8.50
2022-11-20T09:56:06.119Z,8.50
2022-11-20T09:58:42.952Z,8.50
2022-11-20T10:01:17.101Z,8.50
2022-11-20T10:03:59.290Z,8.60
2022-11-20T10:06:34.557Z,8.60
2022-11-20T10:09:21.412Z,8.70
2022-11-20T10:12:13.699Z,8.70
2022-11-20T10:15:00.513Z,8.80
2022-11-20T10:17:57.519Z,8.70
2022-11-20T10:20:38.636Z,8.70
2022-11-20T10:23:43.944Z,8.80
2022-11-20T10:26:24.553Z,8.70
2022-11-20T10:29:12.959Z,8.70
2022-11-20T10:31:45.131Z,8.70
2022-11-20T10:34:24.708Z,8.50
2022-11-20T10:37:00.425Z,8.60
2022-11-20T10:39:37.848Z,8.70
2022-11-20T10:42:16.543Z,8.20
2022-11-20T10:45:06.009Z,8.20
2022-11-20T10:47:35.858Z,8.30
2022-11-20T10:50:12.016Z,8.40
2022-11-20T10:52:53.660Z,8.40
2022-11-20T10:55:35.703Z,8.50
2022-11-20T10:58:15.958Z,8.60
2022-11-20T11:00:46.174Z,8.60
2022-11-20T11:03:28.373Z,8.50
2022-11-20T11:06:06.296Z,8.60
2022-11-20T11:08:40.867Z,8.60
2022-11-20T11:11:23.812Z,8.40
2022-11-20T11:13:53.056Z,8.50
2022-11-20T11:16:27.051Z,8.60
2022-11-20T11:19:07.510Z,8.70
2022-11-20T11:21:37.781Z,8.80
2022-11-20T11:24:34.605Z,8.80
2022-11-20T11:27:00.102Z,8.60
2022-11-20T11:29:30.521Z,8.40
2022-11-20T11:32:09.314Z,8.30
2022-11-20T11:34:38.119Z,8.30
2022-11-20T11:37:15.134Z,8.20
2022-11-20T11:39:45.847Z,8.20
2022-11-20T11:42:20.482Z,7.80
2022-11-20T11:45:08.162Z,7.60
2022-11-20T11:47:47.633Z,7.70
2022-11-20T11:50:21.184Z,7.70
2022-11-20T11:53:03.284Z,7.50
2022-11-20T11:55:37.844Z,7.50
2022-11-20T11:58:23.697Z,7.60
2022-11-20T12:01:02.836Z,7.70
2022-11-20T12:03:39.842Z,7.70
2022-11-20T12:06:14.181Z,7.60
2022-11-20T12:08:51.546Z,7.80
2022-11-20T12:11:33.045Z,7.70
2022-11-20T12:14:13.481Z,7.80
2022-11-20T12:16:42.714Z,7.60
2022-11-20T12:19:15.912Z,7.50
2022-11-20T12:22:03.372Z,7.60
2022-11-20T12:24:57.477Z,7.70
2022-11-20T12:27:51.498Z,7.80
2022-11-20T12:30:22.531Z,7.90
2022-11-20T12:33:14.846Z,7.90
2022-11-20T12:36:23.745Z,7.70
2022-11-20T12:39:29.923Z,7.50
2022-11-20T12:42:48.623Z,7.50
2022-11-20T12:45:55.450Z,7.90
2022-11-20T12:49:04.359Z,7.80
2022-11-20T12:52:15.707Z,8.30
2022-11-20T12:55:17.131Z,10.20
2022-11-20T12:57:55.935Z,11.70
2022-11-20T13:00:27.232Z,12.20
2022-11-20T13:03:39.111Z,12.30
2022-11-20T13:06:18.651Z,12.40
2022-11-20T13:08:56.999Z,12.30
2022-11-20T13:11:36.467Z,11.90
2022-11-20T13:14:34.294Z,11.90
2022-11-20T13:17:15.163Z,11.70
2022-11-20T13:19:44.686Z,11.50
2022-11-20T13:22:13.183Z,11.30
2022-11-20T13:24:53.916Z,11.30
2022-11-20T13:27:24.564Z,11.60
2022-11-20T13:30:16.439Z,12.10
2022-11-20T13:32:54.544Z,12.00
2022-11-20T13:35:33.059Z,12.50
2022-11-20T13:38:11.375Z,13.40
2022-11-20T13:40:54.140Z,12.90
2022-11-20T13:43:31.202Z,12.40
2022-11-20T13:46:02.621Z,12.30
2022-11-20T13:48:36.085Z,12.90
2022-11-20T13:51:31.978Z,13.70
2022-11-20T13:54:45.726Z,13.80
2022-11-20T13:57:53.882Z,13.20
2022-11-20T14:00:24.903Z,12.10
2022-11-20T14:03:14.406Z,11.40
2022-11-20T14:05:53.563Z,10.90
2022-11-20T14:08:38.979Z,10.70
2022-11-20T14:11:18.914Z,10.50
2022-11-20T14:14:04.200Z,10.20
2022-11-20T14:16:36.653Z,9.80
2022-11-20T14:19:31.399Z,9.80
2022-11-20T14:22:20.866Z,9.80
2022-11-20T14:24:51.014Z,9.50
2022-11-20T14:27:22.784Z,9.40
2022-11-20T14:29:53.283Z,9.30
2022-11-20T14:32:29.861Z,9.30
2022-11-20T14:35:05.287Z,9.30
2022-11-20T14:37:39.626Z,9.40
2022-11-20T14:40:31.174Z,9.10
2022-11-20T14:43:01.655Z,9.00
2022-11-20T14:45:31.759Z,9.00
2022-11-20T14:48:02.131Z,8.90
2022-11-20T14:50:31.952Z,8.80
2022-11-20T14:53:02.603Z,8.80
2022-11-20T14:55:34.263Z,8.90
2022-11-20T14:58:05.718Z,9.00
2022-11-20T15:00:38.207Z,8.90
2022-11-20T15:03:18.804Z,9.00
2022-11-20T15:05:50.772Z,9.20
2022-11-20T15:08:19.866Z,9.20
2022-11-20T15:10:50.556Z,9.20
2022-11-20T15:13:28.284Z,9.20
2022-11-20T15:16:00.570Z,9.20
2022-11-20T15:18:33.832Z,9.20
2022-11-20T15:21:11.368Z,9.10
2022-11-20T15:23:40.029Z,8.90
2022-11-20T15:26:12.258Z,8.80
2022-11-20T15:28:48.501Z,8.70
2022-11-20T15:31:21.360Z,8.80
2022-11-20T15:33:50.729Z,8.70
2022-11-20T15:36:19.526Z,8.70
2022-11-20T15:38:48.497Z,8.60
2022-11-20T15:41:17.035Z,8.50
2022-11-20T15:43:46.073Z,8.50
2022-11-20T15:46:22.819Z,8.50
2022-11-20T15:48:57.524Z,8.50
2022-11-20T15:51:31.438Z,8.50
2022-11-20T15:54:01.031Z,8.50
2022-11-20T15:56:29.736Z,8.40
2022-11-20T15:58:58.272Z,8.40
2022-11-20T16:01:28.458Z,8.40
2022-11-20T16:03:57.192Z,8.40
2022-11-20T16:06:25.675Z,8.40
2022-11-20T16:08:54.166Z,8.30
2022-11-20T16:11:22.676Z,8.20
2022-11-20T16:14:08.645Z,8.20
2022-11-20T16:16:42.395Z,8.30
2022-11-20T16:19:14.054Z,8.20
2022-11-20T16:21:43.615Z,8.20
2022-11-20T16:24:14.961Z,8.20
2022-11-20T16:26:43.851Z,8.20
2022-11-20T16:29:12.848Z,8.20
2022-11-20T16:31:42.781Z,8.20
2022-11-20T16:34:12.760Z,8.10
2022-11-20T16:36:43.148Z,8.10
2022-11-20T16:39:12.193Z,8.00
2022-11-20T16:41:41.084Z,7.90
2022-11-20T16:44:12.533Z,7.90
2022-11-20T16:46:42.557Z,7.80
2022-11-20T16:49:15.753Z,7.70
2022-11-20T16:51:44.425Z,7.60
2022-11-20T16:54:16.511Z,7.60
2022-11-20T16:56:48.572Z,7.60
2022-11-20T16:59:17.300Z,7.60
2022-11-20T17:01:47.280Z,7.60
2022-11-20T17:04:16.204Z,7.60
2022-11-20T17:06:45.854Z,7.50
2022-11-20T17:09:15.103Z,7.50
2022-11-20T17:11:43.981Z,7.50
2022-11-20T17:14:13.614Z,7.50
2022-11-20T17:16:43.099Z,7.40
2022-11-20T17:19:13.639Z,7.50
2022-11-20T17:21:42.629Z,7.40
2022-11-20T17:24:13.749Z,7.40
2022-11-20T17:26:45.593Z,7.40
2022-11-20T17:29:16.993Z,7.30
2022-11-20T17:31:48.694Z,7.30
2022-11-20T17:34:19.296Z,7.20
2022-11-20T17:36:47.903Z,7.20
2022-11-20T17:39:17.861Z,7.10
2022-11-20T17:42:06.597Z,7.20
2022-11-20T17:44:35.685Z,7.10
2022-11-20T17:47:04.396Z,7.10
2022-11-20T17:49:34.433Z,7.20
2022-11-20T17:52:03.303Z,7.20
2022-11-20T17:54:32.087Z,7.20
2022-11-20T17:57:17.846Z,7.30
2022-11-20T17:59:46.447Z,7.20
2022-11-20T18:02:15.182Z,7.20
2022-11-20T18:04:45.339Z,7.10
2022-11-20T18:07:13.992Z,7.10
2022-11-20T18:09:42.680Z,7.00
2022-11-20T18:12:45.529Z,7.00
2022-11-20T18:15:46.200Z,7.00
2022-11-20T18:18:28.819Z,7.10
2022-11-20T18:32:03.018Z,7.00
2022-11-20T18:34:31.808Z,7.00
2022-11-20T18:37:01.900Z,7.00
2022-11-20T18:39:30.644Z,7.00
2022-11-20T18:42:16.798Z,7.10
2022-11-20T18:44:55.152Z,7.10
2022-11-20T18:47:28.363Z,7.20
2022-11-20T18:49:58.848Z,7.20
2022-11-20T18:52:32.362Z,7.10
2022-11-20T18:55:01.449Z,7.10
2022-11-20T18:57:31.952Z,7.10
2022-11-20T19:00:08.304Z,7.10
2022-11-20T19:02:42.321Z,7.20
2022-11-20T19:05:12.371Z,7.10
2022-11-20T19:07:43.078Z,7.10
2022-11-20T19:10:12.353Z,7.10
2022-11-20T19:12:41.042Z,7.20
2022-11-20T19:15:10.494Z,7.20
2022-11-20T19:17:39.360Z,7.10
2022-11-20T19:20:09.010Z,7.00
2022-11-20T19:22:37.722Z,6.90
2022-11-20T19:25:09.541Z,6.80
2022-11-20T19:27:38.181Z,6.70
2022-11-20T19:30:08.176Z,6.80
2022-11-20T19:32:36.861Z,6.80
2022-11-20T19:35:06.537Z,6.90
2022-11-20T19:37:36.190Z,6.90
2022-11-20T19:40:05.542Z,6.90
2022-11-20T19:42:35.768Z,7.00
2022-11-20T19:45:04.418Z,7.10
2022-11-20T19:48:06.068Z,7.10
2022-11-20T19:50:23.593Z,6.90
2022-11-20T19:52:58.352Z,6.80
2022-11-20T19:55:27.632Z,6.70
2022-11-20T19:57:58.210Z,6.60
2022-11-20T20:00:32.842Z,6.60
2022-11-20T20:03:01.902Z,6.60
2022-11-20T20:05:30.703Z,6.70
2022-11-20T20:07:59.299Z,6.40
2022-11-20T20:10:29.086Z,6.40
2022-11-20T20:12:59.279Z,6.40
2022-11-20T20:15:33.635Z,6.60
2022-11-20T20:18:02.371Z,6.70
2022-11-20T20:20:32.437Z,6.80
2022-11-20T20:23:02.719Z,6.80
2022-11-20T20:25:31.406Z,6.90
2022-11-20T20:28:01.679Z,7.00
2022-11-20T20:30:30.358Z,7.00
2022-11-20T20:32:58.974Z,7.00
2022-11-20T20:35:27.553Z,7.10
2022-11-20T20:37:56.513Z,7.10
2022-11-20T20:40:25.861Z,7.10
2022-11-20T20:42:54.665Z,7.10
2022-11-20T20:45:24.893Z,7.10
2022-11-20T20:47:53.659Z,7.10
2022-11-20T20:50:22.433Z,7.10
2022-11-20T20:52:51.190Z,7.20
2022-11-20T20:55:20.080Z,7.20
2022-11-20T20:57:48.813Z,7.20
2022-11-20T21:00:18.559Z,7.20
2022-11-20T21:02:48.912Z,7.20
2022-11-20T21:05:20.158Z,7.10
2022-11-20T21:08:06.652Z,7.10
2022-11-20T21:10:35.630Z,7.00
2022-11-20T21:13:09.548Z,7.10
2022-11-20T21:15:41.702Z,7.00
2022-11-20T21:18:12.281Z,7.00
2022-11-20T21:20:58.889Z,7.00
2022-11-20T21:23:27.990Z,7.00
2022-11-20T21:25:57.252Z,7.00
2022-11-20T21:28:30.113Z,7.00
2022-11-20T21:31:09.153Z,7.00
2022-11-20T21:33:42.009Z,7.00
2022-11-20T21:36:14.534Z,6.90
2022-11-20T21:38:43.858Z,6.90
2022-11-20T21:41:15.003Z,6.90
2022-11-20T21:43:44.426Z,6.90
2022-11-20T21:46:16.586Z,6.90
2022-11-20T21:49:13.926Z,6.90
2022-11-20T21:52:08.904Z,6.90
2022-11-20T21:54:40.999Z,6.90
2022-11-20T21:58:06.587Z,6.90
2022-11-20T22:00:54.362Z,6.80
2022-11-20T22:07:07.428Z,6.90
2022-11-20T22:09:32.080Z,6.90
2022-11-20T22:13:04.705Z,6.90
2022-11-20T22:15:59.395Z,6.90
2022-11-20T22:18:24.472Z,6.80
2022-11-20T22:20:55.743Z,6.70
2022-11-20T22:23:39.813Z,6.70
2022-11-20T22:26:29.326Z,6.70
2022-11-20T22:29:01.955Z,6.60
2022-11-20T22:31:42.207Z,6.20
2022-11-20T22:34:13.803Z,6.10
2022-11-20T22:37:10.132Z,6.10
2022-11-20T22:43:17.537Z,6.20
2022-11-20T22:45:48.934Z,6.30
2022-11-20T22:48:20.302Z,6.20
2022-11-20T22:51:10.500Z,6.20
2022-11-20T22:53:41.611Z,6.10
2022-11-20T22:56:28.594Z,6.30
2022-11-20T22:59:00.169Z,6.30
2022-11-20T23:01:40.225Z,6.40
2022-11-20T23:04:15.633Z,6.40
2022-11-20T23:06:50.998Z,6.40
2022-11-20T23:09:25.944Z,6.30
2022-11-20T23:12:09.238Z,6.30
2022-11-20T23:14:39.504Z,6.60
2022-11-20T23:17:11.599Z,6.70
2022-11-20T23:19:44.007Z,6.80
2022-11-20T23:22:21.928Z,6.90
2022-11-20T23:24:50.815Z,6.90
2022-11-20T23:27:28.125Z,6.90
2022-11-20T23:30:03.232Z,6.80
2022-11-20T23:32:42.827Z,6.60
2022-11-20T23:35:19.354Z,6.30
2022-11-20T23:37:48.303Z,6.30
